Time;durP1;ratioP1;P1;durP2;ratioP2;P2;SDS_P1;SDS_P2;PMS_P1;PMS_P2;Temp;Humidity;BMP_temperature;BMP_pressure;BME280_temperature;BME280_humidity;BME280_pressure;Samples;Min_cycle;Max_cycle;Signal;HPM_P1;HPM_P2
2024/01/03 00:00:26;;;;;;;6.30;6.00;;;;;;;;;;5013550;28;20036;-62
2024/01/03 00:02:52;;;;;;;6.65;6.35;;;;;;;;;;5014922;28;20033;-63
2024/01/03 00:05:23;;;;;;;6.80;6.40;;;;;;;;;;5017291;28;20076;-64
2024/01/03 00:07:49;;;;;;;6.93;6.63;;;;;;;;;;5017438;28;20057;-64
2024/01/03 00:10:42;;;;;;;6.45;6.13;;;;;;;;;;5011476;28;20751;-62
2024/01/03 00:13:33;;;;;;;7.20;6.78;;;;;;;;;;5014711;28;20025;-62
2024/01/03 00:15:58;;;;;;;6.88;6.47;;;;;;;;;;5015067;28;20041;-63
2024/01/03 00:18:33;;;;;;;7.13;6.72;;;;;;;;;;4993215;28;20029;-61
2024/01/03 00:20:59;;;;;;;6.47;6.07;;;;;;;;;;5009095;28;20048;-64
2024/01/03 00:23:36;;;;;;;6.18;5.88;;;;;;;;;;5015172;28;20029;-63
2024/01/03 00:26:01;;;;;;;6.80;6.50;;;;;;;;;;5018004;28;20510;-63
2024/01/03 00:28:27;;;;;;;6.85;6.45;;;;;;;;;;5014250;28;20040;-63
2024/01/03 00:30:53;;;;;;;7.10;6.68;;;;;;;;;;5014433;28;20132;-62
2024/01/03 00:33:19;;;;;;;6.50;6.20;;;;;;;;;;4999034;28;20049;-64
2024/01/03 00:35:45;;;;;;;6.85;6.20;;;;;;;;;;4998049;28;20033;-63
2024/01/03 00:38:10;;;;;;;6.60;6.30;;;;;;;;;;5011632;28;20051;-62
2024/01/03 00:40:50;;;;;;;7.13;6.57;;;;;;;;;;5015071;28;20037;-62
2024/01/03 00:43:16;;;;;;;7.10;6.70;;;;;;;;;;5013933;28;20065;-63
2024/01/03 00:45:42;;;;;;;6.75;6.35;;;;;;;;;;4995295;28;20562;-62
2024/01/03 00:48:07;;;;;;;6.93;6.43;;;;;;;;;;5014948;28;20043;-63
2024/01/03 00:50:33;;;;;;;7.40;6.80;;;;;;;;;;4993709;28;20148;-62
2024/01/03 00:52:58;;;;;;;7.53;7.03;;;;;;;;;;4989025;28;21000;-62
2024/01/03 00:55:24;;;;;;;7.18;6.72;;;;;;;;;;5013589;28;20045;-63
2024/01/03 00:57:50;;;;;;;8.25;6.43;;;;;;;;;;4996598;28;20041;-63
2024/01/03 01:00:16;;;;;;;7.18;6.68;;;;;;;;;;4997347;28;20034;-62
2024/01/03 01:02:44;;;;;;;6.88;6.38;;;;;;;;;;5015613;28;20148;-62
2024/01/03 01:05:10;;;;;;;6.60;6.30;;;;;;;;;;5017243;28;20072;-62
2024/01/03 01:07:36;;;;;;;6.95;6.55;;;;;;;;;;5015441;28;20124;-63
2024/01/03 01:10:01;;;;;;;6.55;6.15;;;;;;;;;;4994680;28;20499;-63
2024/01/03 01:12:27;;;;;;;7.38;6.70;;;;;;;;;;5016038;28;20037;-60
2024/01/03 01:14:52;;;;;;;7.80;7.13;;;;;;;;;;4998662;28;20443;-64
2024/01/03 01:17:18;;;;;;;7.28;6.88;;;;;;;;;;4996339;28;20034;-63
2024/01/03 01:19:44;;;;;;;7.80;6.43;;;;;;;;;;5014567;28;20709;-64
2024/01/03 01:22:09;;;;;;;7.30;6.70;;;;;;;;;;5013287;28;20042;-62
2024/01/03 01:24:35;;;;;;;7.28;6.68;;;;;;;;;;4994538;28;20095;-63
2024/01/03 01:27:02;;;;;;;7.22;6.80;;;;;;;;;;4996490;28;20075;-62
2024/01/03 01:29:28;;;;;;;6.82;6.35;;;;;;;;;;5020475;28;20575;-63
2024/01/03 01:31:53;;;;;;;6.90;6.40;;;;;;;;;;4999575;28;20041;-63
2024/01/03 01:34:19;;;;;;;7.80;7.10;;;;;;;;;;5012265;28;20079;-64
2024/01/03 01:36:45;;;;;;;7.05;6.63;;;;;;;;;;5015242;28;20026;-64
2024/01/03 01:39:11;;;;;;;6.82;6.28;;;;;;;;;;4991328;28;20687;-64
2024/01/03 01:41:36;;;;;;;6.97;6.40;;;;;;;;;;5013440;28;20041;-64
2024/01/03 01:44:02;;;;;;;7.43;6.82;;;;;;;;;;5015887;28;20034;-62
2024/01/03 01:46:28;;;;;;;6.65;6.25;;;;;;;;;;4996682;28;20033;-61
2024/01/03 01:48:53;;;;;;;7.10;6.60;;;;;;;;;;4996510;28;20043;-63
2024/01/03 01:51:19;;;;;;;6.78;6.25;;;;;;;;;;5007574;28;20610;-63
2024/01/03 01:53:45;;;;;;;7.05;6.65;;;;;;;;;;5011608;28;20033;-63
2024/01/03 01:56:12;;;;;;;7.70;7.20;;;;;;;;;;5013906;28;20042;-64
2024/01/03 01:58:42;;;;;;;7.22;6.72;;;;;;;;;;4995403;28;20040;-62
2024/01/03 02:01:08;;;;;;;6.75;6.35;;;;;;;;;;5014594;28;20084;-64
2024/01/03 02:03:36;;;;;;;7.07;6.68;;;;;;;;;;4995945;28;20506;-63
2024/01/03 02:06:03;;;;;;;7.15;6.75;;;;;;;;;;4998499;28;20034;-63
2024/01/03 02:08:30;;;;;;;6.88;6.47;;;;;;;;;;5010408;28;20040;-63
2024/01/03 02:10:56;;;;;;;8.13;7.53;;;;;;;;;;4978593;28;20122;-63
2024/01/03 02:13:21;;;;;;;6.60;6.28;;;;;;;;;;5012070;28;20116;-63
2024/01/03 02:15:47;;;;;;;7.72;7.25;;;;;;;;;;5003879;28;20042;-63
2024/01/03 02:18:20;;;;;;;7.15;6.75;;;;;;;;;;4995738;28;20061;-61
2024/01/03 02:20:47;;;;;;;7.50;7.00;;;;;;;;;;4995705;28;20029;-64
2024/01/03 02:23:13;;;;;;;7.13;6.63;;;;;;;;;;4998350;28;20048;-63
2024/01/03 02:25:39;;;;;;;6.82;6.43;;;;;;;;;;4994900;28;20049;-63
2024/01/03 02:28:09;;;;;;;6.80;6.50;;;;;;;;;;4998428;28;20056;-63
2024/01/03 02:30:35;;;;;;;6.70;6.40;;;;;;;;;;5015461;28;20495;-63
2024/01/03 02:33:01;;;;;;;6.90;6.60;;;;;;;;;;5016338;28;20387;-64
2024/01/03 02:35:27;;;;;;;7.10;6.60;;;;;;;;;;5015202;28;22096;-62
2024/01/03 02:37:52;;;;;;;6.78;6.38;;;;;;;;;;5009633;28;20029;-63
2024/01/03 02:40:18;;;;;;;7.55;7.15;;;;;;;;;;5014679;28;20037;-63
2024/01/03 02:42:43;;;;;;;6.95;6.65;;;;;;;;;;5012885;28;20037;-62
2024/01/03 02:45:09;;;;;;;7.60;7.20;;;;;;;;;;5011544;28;21008;-63
2024/01/03 02:47:35;;;;;;;6.85;6.45;;;;;;;;;;5014004;28;20644;-63
2024/01/03 02:50:01;;;;;;;6.70;6.40;;;;;;;;;;5019495;28;20037;-62
2024/01/03 02:52:27;;;;;;;7.15;6.70;;;;;;;;;;5011569;28;20537;-64
2024/01/03 02:54:53;;;;;;;7.35;6.90;;;;;;;;;;5015087;28;20041;-63
2024/01/03 02:57:19;;;;;;;7.78;7.28;;;;;;;;;;5013614;28;20029;-63
2024/01/03 02:59:44;;;;;;;7.10;6.70;;;;;;;;;;5007769;28;20041;-64
2024/01/03 03:02:10;;;;;;;8.25;7.75;;;;;;;;;;5015122;28;20048;-64
2024/01/03 03:04:35;;;;;;;7.75;7.35;;;;;;;;;;5010814;28;20090;-64
2024/01/03 03:07:01;;;;;;;7.50;7.10;;;;;;;;;;5015101;28;20026;-64
2024/01/03 03:09:26;;;;;;;7.47;7.07;;;;;;;;;;5015030;28;20092;-64
2024/01/03 03:11:52;;;;;;;8.32;7.93;;;;;;;;;;5013183;28;20025;-64
2024/01/03 03:14:17;;;;;;;7.78;7.20;;;;;;;;;;5016255;28;20525;-64
2024/01/03 03:16:43;;;;;;;8.00;7.50;;;;;;;;;;5014223;28;20124;-64
2024/01/03 03:19:08;;;;;;;7.90;7.50;;;;;;;;;;5014205;28;20055;-64
2024/01/03 03:21:34;;;;;;;7.40;7.00;;;;;;;;;;5015004;28;20036;-64
2024/01/03 03:24:03;;;;;;;8.57;7.65;;;;;;;;;;5014794;28;20029;-64
2024/01/03 03:26:28;;;;;;;7.53;7.10;;;;;;;;;;5011550;28;20037;-64
2024/01/03 03:28:54;;;;;;;7.97;7.38;;;;;;;;;;5011239;28;20042;-64
2024/01/03 03:31:20;;;;;;;8.18;7.50;;;;;;;;;;5012952;28;20045;-64
2024/01/03 03:33:45;;;;;;;8.65;8.05;;;;;;;;;;5010446;28;20048;-63
2024/01/03 03:36:12;;;;;;;7.88;7.28;;;;;;;;;;5012693;28;20037;-61
2024/01/03 03:38:39;;;;;;;7.78;7.38;;;;;;;;;;5013926;28;20136;-61
2024/01/03 03:41:11;;;;;;;8.00;7.60;;;;;;;;;;5017485;28;20041;-61
2024/01/03 03:43:38;;;;;;;7.90;7.50;;;;;;;;;;5003687;28;20029;-62
2024/01/03 03:46:05;;;;;;;8.68;8.18;;;;;;;;;;5013642;28;20037;-62
2024/01/03 03:48:31;;;;;;;8.48;7.97;;;;;;;;;;5017743;28;20128;-61
2024/01/03 03:50:57;;;;;;;8.75;8.15;;;;;;;;;;5018859;28;20106;-62
2024/01/03 03:53:22;;;;;;;8.55;8.05;;;;;;;;;;5010853;28;20037;-64
2024/01/03 03:55:50;;;;;;;8.45;7.95;;;;;;;;;;5015189;28;20083;-63
2024/01/03 03:58:16;;;;;;;8.68;8.18;;;;;;;;;;5018780;28;20518;-63
2024/01/03 04:00:42;;;;;;;8.48;7.97;;;;;;;;;;5008142;28;20026;-63
2024/01/03 04:03:08;;;;;;;8.63;8.02;;;;;;;;;;5014585;28;20045;-63
2024/01/03 04:05:35;;;;;;;8.15;7.75;;;;;;;;;;5017033;28;20499;-63
2024/01/03 04:08:01;;;;;;;8.63;8.02;;;;;;;;;;5018892;28;20049;-63
2024/01/03 04:10:28;;;;;;;8.57;7.88;;;;;;;;;;5011682;28;20045;-63
2024/01/03 04:12:55;;;;;;;8.05;7.55;;;;;;;;;;5017159;28;20044;-63
2024/01/03 04:15:22;;;;;;;8.95;8.30;;;;;;;;;;5010272;28;20125;-63
2024/01/03 04:17:47;;;;;;;8.65;8.15;;;;;;;;;;5015070;28;20120;-62
2024/01/03 04:20:13;;;;;;;8.65;7.95;;;;;;;;;;5013849;28;20128;-63
2024/01/03 04:22:42;;;;;;;8.88;8.27;;;;;;;;;;5015587;28;20041;-62
2024/01/03 04:25:08;;;;;;;8.45;7.63;;;;;;;;;;5017191;28;20045;-63
2024/01/03 04:27:34;;;;;;;8.20;7.55;;;;;;;;;;5014605;28;20499;-63
2024/01/03 04:29:59;;;;;;;8.75;8.20;;;;;;;;;;5013084;28;20619;-63
2024/01/03 04:32:25;;;;;;;9.02;8.38;;;;;;;;;;5015790;28;20033;-62
2024/01/03 04:34:50;;;;;;;9.20;8.52;;;;;;;;;;5021861;28;20029;-63
2024/01/03 04:37:16;;;;;;;9.52;8.77;;;;;;;;;;5018473;28;20021;-63
2024/01/03 04:39:41;;;;;;;8.57;7.80;;;;;;;;;;5021271;28;20034;-63
2024/01/03 04:42:07;;;;;;;8.68;8.18;;;;;;;;;;5014193;28;20044;-63
2024/01/03 04:44:34;;;;;;;10.40;9.60;;;;;;;;;;5018838;28;20124;-63
2024/01/03 04:47:00;;;;;;;8.45;7.85;;;;;;;;;;5017865;28;20029;-62
2024/01/03 04:49:27;;;;;;;8.82;8.32;;;;;;;;;;5016292;28;20132;-63
2024/01/03 04:51:53;;;;;;;9.52;8.70;;;;;;;;;;5001274;28;20047;-62
2024/01/03 04:54:19;;;;;;;8.95;8.43;;;;;;;;;;4996650;28;20418;-63
2024/01/03 04:56:45;;;;;;;10.00;9.13;;;;;;;;;;5016022;28;20043;-62
2024/01/03 04:59:11;;;;;;;10.02;9.25;;;;;;;;;;5016761;28;20040;-62
2024/01/03 05:01:36;;;;;;;8.80;8.30;;;;;;;;;;5019885;28;20098;-63
2024/01/03 05:04:02;;;;;;;8.70;8.00;;;;;;;;;;5011769;28;20033;-61
2024/01/03 05:06:27;;;;;;;8.18;7.68;;;;;;;;;;5018263;28;20542;-63
2024/01/03 05:08:53;;;;;;;51.28;33.90;;;;;;;;;;5016201;28;20061;-62
2024/01/03 05:11:19;;;;;;;8.55;7.95;;;;;;;;;;5016142;28;20179;-62
2024/01/03 05:13:44;;;;;;;9.43;8.93;;;;;;;;;;5015225;28;20122;-62
2024/01/03 05:16:10;;;;;;;18.58;16.65;;;;;;;;;;5016831;28;20569;-62
2024/01/03 05:18:36;;;;;;;9.85;9.05;;;;;;;;;;5015919;28;20686;-63
2024/01/03 05:21:02;;;;;;;18.92;16.90;;;;;;;;;;5015167;28;20038;-62
2024/01/03 05:23:28;;;;;;;10.40;9.40;;;;;;;;;;5017139;28;20043;-62
2024/01/03 05:25:53;;;;;;;8.75;8.25;;;;;;;;;;5013702;28;20553;-63
2024/01/03 05:28:19;;;;;;;12.10;11.05;;;;;;;;;;5015173;28;20155;-62
2024/01/03 05:30:44;;;;;;;11.82;10.88;;;;;;;;;;5010659;28;20046;-63
2024/01/03 05:33:10;;;;;;;10.18;9.43;;;;;;;;;;5014974;28;20103;-62
2024/01/03 05:35:35;;;;;;;8.80;8.00;;;;;;;;;;5017284;28;20029;-62
2024/01/03 05:38:01;;;;;;;13.13;11.88;;;;;;;;;;5010935;28;20036;-62
2024/01/03 05:40:26;;;;;;;11.15;10.23;;;;;;;;;;5012359;28;20064;-62
2024/01/03 05:42:52;;;;;;;12.82;11.77;;;;;;;;;;5006587;28;20044;-62
2024/01/03 05:45:17;;;;;;;8.85;8.25;;;;;;;;;;5014225;28;20033;-62
2024/01/03 05:47:43;;;;;;;9.18;8.68;;;;;;;;;;5007976;28;20025;-62
2024/01/03 05:50:08;;;;;;;21.13;18.58;;;;;;;;;;5018805;28;20560;-61
2024/01/03 05:52:35;;;;;;;27.85;22.92;;;;;;;;;;5006000;28;21489;-61
2024/01/03 05:55:02;;;;;;;11.60;10.60;;;;;;;;;;5013870;28;20034;-62
2024/01/03 05:57:28;;;;;;;10.65;9.52;;;;;;;;;;5016856;28;20071;-61
2024/01/03 05:59:54;;;;;;;9.55;8.75;;;;;;;;;;5009783;28;20034;-61
2024/01/03 06:02:19;;;;;;;63.47;42.35;;;;;;;;;;4996038;28;20044;-63
2024/01/03 06:04:46;;;;;;;10.20;9.43;;;;;;;;;;5012830;28;20041;-62
2024/01/03 06:07:12;;;;;;;11.45;10.60;;;;;;;;;;5011263;28;20051;-62
2024/01/03 06:09:37;;;;;;;8.73;8.02;;;;;;;;;;5018858;28;20083;-61
2024/01/03 06:12:03;;;;;;;9.50;8.70;;;;;;;;;;5013243;28;20033;-61
2024/01/03 06:14:29;;;;;;;10.30;9.48;;;;;;;;;;5016762;28;20449;-61
2024/01/03 06:16:55;;;;;;;11.55;10.55;;;;;;;;;;5014499;28;20045;-61
2024/01/03 06:19:20;;;;;;;9.85;9.02;;;;;;;;;;5012324;28;20030;-62
2024/01/03 06:21:46;;;;;;;13.38;12.07;;;;;;;;;;5012512;28;20430;-62
2024/01/03 06:24:12;;;;;;;12.07;10.43;;;;;;;;;;5008606;28;20026;-63
2024/01/03 06:26:37;;;;;;;9.55;8.85;;;;;;;;;;5010270;28;20099;-62
2024/01/03 06:29:03;;;;;;;13.13;10.52;;;;;;;;;;5015273;28;20025;-62
2024/01/03 06:31:29;;;;;;;8.20;7.60;;;;;;;;;;5014974;28;20121;-62
2024/01/03 06:33:55;;;;;;;12.95;11.85;;;;;;;;;;5012028;28;20061;-62
2024/01/03 06:36:20;;;;;;;12.65;11.50;;;;;;;;;;5013790;28;21285;-62
2024/01/03 06:38:46;;;;;;;9.48;8.85;;;;;;;;;;5014368;28;20032;-63
2024/01/03 06:41:11;;;;;;;11.88;10.90;;;;;;;;;;5008148;28;20038;-62
2024/01/03 06:43:37;;;;;;;15.50;11.73;;;;;;;;;;5013436;28;20029;-62
2024/01/03 06:46:03;;;;;;;8.77;7.97;;;;;;;;;;5012401;28;20781;-64
2024/01/03 06:48:29;;;;;;;9.85;9.07;;;;;;;;;;5014934;28;20718;-63
2024/01/03 06:50:55;;;;;;;13.07;11.48;;;;;;;;;;5010313;28;20041;-62
2024/01/03 06:53:20;;;;;;;11.20;10.27;;;;;;;;;;5012036;28;20037;-63
2024/01/03 06:55:46;;;;;;;18.08;13.55;;;;;;;;;;5017024;28;20041;-62
2024/01/03 06:58:11;;;;;;;14.57;12.82;;;;;;;;;;5017833;28;20037;-62
2024/01/03 07:00:37;;;;;;;9.70;8.90;;;;;;;;;;4996262;28;20041;-63
2024/01/03 07:03:04;;;;;;;8.30;7.80;;;;;;;;;;5009342;28;20038;-63
2024/01/03 07:05:29;;;;;;;9.05;8.48;;;;;;;;;;5010180;28;20041;-63
2024/01/03 07:07:56;;;;;;;8.85;8.30;;;;;;;;;;5011610;28;20025;-63
2024/01/03 07:10:22;;;;;;;9.20;8.35;;;;;;;;;;5018566;28;20157;-63
2024/01/03 07:12:48;;;;;;;9.60;8.85;;;;;;;;;;5011628;28;20888;-63
2024/01/03 07:15:17;;;;;;;83.78;37.17;;;;;;;;;;5009323;28;20037;-63
2024/01/03 07:17:44;;;;;;;12.52;10.90;;;;;;;;;;5014048;28;20048;-63
2024/01/03 07:20:10;;;;;;;29.60;16.58;;;;;;;;;;5016128;28;20127;-63
2024/01/03 07:22:36;;;;;;;8.77;8.07;;;;;;;;;;5013779;28;20061;-63
2024/01/03 07:25:01;;;;;;;8.98;8.02;;;;;;;;;;5012365;28;20030;-63
2024/01/03 07:27:27;;;;;;;9.38;8.68;;;;;;;;;;5010218;28;20037;-63
2024/01/03 07:29:53;;;;;;;8.43;7.90;;;;;;;;;;5011392;28;20918;-63
2024/01/03 07:32:19;;;;;;;8.82;8.18;;;;;;;;;;5011827;28;20037;-63
2024/01/03 07:34:45;;;;;;;8.00;7.60;;;;;;;;;;5014111;28;20056;-63
2024/01/03 07:37:10;;;;;;;8.35;7.60;;;;;;;;;;5015339;28;20086;-63
2024/01/03 07:39:36;;;;;;;7.88;7.38;;;;;;;;;;5012143;28;20078;-64
2024/01/03 07:42:01;;;;;;;8.88;8.18;;;;;;;;;;5008143;28;20095;-63
2024/01/03 07:44:33;;;;;;;8.65;7.88;;;;;;;;;;5016090;28;20108;-64
2024/01/03 07:46:59;;;;;;;8.55;7.85;;;;;;;;;;5012337;28;20046;-63
2024/01/03 07:49:24;;;;;;;8.65;8.10;;;;;;;;;;5011304;28;20775;-63
2024/01/03 07:51:51;;;;;;;9.38;8.48;;;;;;;;;;5011358;28;20061;-63
2024/01/03 07:54:17;;;;;;;9.15;8.32;;;;;;;;;;5013862;28;20117;-63
2024/01/03 07:56:42;;;;;;;9.50;8.90;;;;;;;;;;5016703;28;20126;-63
2024/01/03 07:59:08;;;;;;;11.02;9.60;;;;;;;;;;5014643;28;20538;-63
2024/01/03 08:01:35;;;;;;;9.50;8.70;;;;;;;;;;5010389;28;20070;-63
2024/01/03 08:04:01;;;;;;;8.10;7.70;;;;;;;;;;5014708;28;20562;-63
2024/01/03 08:06:26;;;;;;;8.80;8.20;;;;;;;;;;5020166;28;20052;-63
2024/01/03 08:08:52;;;;;;;8.90;8.30;;;;;;;;;;5016184;28;20060;-63
2024/01/03 08:11:18;;;;;;;11.23;9.60;;;;;;;;;;5019048;28;20084;-63
2024/01/03 08:13:44;;;;;;;9.25;8.52;;;;;;;;;;5017310;28;21399;-63
2024/01/03 08:16:13;;;;;;;8.48;7.93;;;;;;;;;;5020385;28;20068;-63
2024/01/03 08:18:39;;;;;;;8.98;8.10;;;;;;;;;;5013436;28;20044;-63
2024/01/03 08:21:05;;;;;;;8.82;8.23;;;;;;;;;;5016064;28;20036;-63
2024/01/03 08:23:31;;;;;;;9.10;8.30;;;;;;;;;;5021398;28;20087;-63
2024/01/03 08:25:57;;;;;;;8.40;7.65;;;;;;;;;;5022243;28;20040;-63
2024/01/03 08:28:22;;;;;;;11.52;7.43;;;;;;;;;;5015691;28;20025;-62
2024/01/03 08:30:49;;;;;;;8.02;7.53;;;;;;;;;;5021593;28;20033;-63
2024/01/03 08:33:14;;;;;;;9.07;8.38;;;;;;;;;;5019110;28;20079;-63
2024/01/03 08:35:40;;;;;;;7.88;7.43;;;;;;;;;;5019153;28;20076;-63
2024/01/03 08:38:05;;;;;;;9.48;8.68;;;;;;;;;;5019474;28;20033;-63
2024/01/03 08:40:31;;;;;;;9.13;7.97;;;;;;;;;;5021359;28;20046;-63
2024/01/03 08:42:59;;;;;;;8.60;7.97;;;;;;;;;;5018285;28;20541;-63
2024/01/03 08:45:24;;;;;;;8.60;7.90;;;;;;;;;;5019221;28;20434;-62
2024/01/03 08:58:40;;;;;;;9.02;8.00;;;;;;;;;;5127693;27;20367;-74
2024/01/03 09:01:17;;;;;;;8.82;8.20;;;;;;;;;;5100571;27;20072;-75
2024/01/03 09:03:59;;;;;;;8.48;7.97;;;;;;;;;;5118833;27;20036;-74
2024/01/03 09:06:38;;;;;;;8.75;8.15;;;;;;;;;;5114144;27;20676;-74
2024/01/03 09:09:25;;;;;;;8.32;7.75;;;;;;;;;;5115577;27;20532;-74
2024/01/03 09:12:35;;;;;;;8.80;7.97;;;;;;;;;;5118730;27;20065;-74
2024/01/03 09:15:52;;;;;;;9.15;8.18;;;;;;;;;;5031079;28;20045;-74
2024/01/03 09:18:24;;;;;;;7.95;7.45;;;;;;;;;;5049764;28;20041;-74
2024/01/03 09:21:20;;;;;;;9.02;8.40;;;;;;;;;;5038881;28;20037;-74
2024/01/03 09:23:52;;;;;;;9.75;8.68;;;;;;;;;;5055736;28;20468;-74
2024/01/03 09:30:21;;;;;;;8.60;7.82;;;;;;;;;;4995426;28;20396;-74
2024/01/03 09:33:27;;;;;;;9.80;8.57;;;;;;;;;;4988994;28;20053;-74
2024/01/03 09:36:44;;;;;;;7.95;7.45;;;;;;;;;;5009538;28;20057;-74
2024/01/03 09:39:47;;;;;;;8.65;8.15;;;;;;;;;;4996187;28;20476;-75
2024/01/03 09:43:05;;;;;;;8.23;7.68;;;;;;;;;;5000797;28;20046;-75
2024/01/03 09:46:03;;;;;;;8.43;7.82;;;;;;;;;;4995328;28;20042;-75
2024/01/03 09:48:28;;;;;;;8.23;7.70;;;;;;;;;;4999721;28;20069;-75
2024/01/03 09:50:55;;;;;;;9.05;8.35;;;;;;;;;;5002683;28;20136;-75
2024/01/03 09:53:22;;;;;;;8.90;8.35;;;;;;;;;;5033840;28;20041;-75
2024/01/03 09:55:49;;;;;;;8.40;7.72;;;;;;;;;;5032166;28;20029;-75
2024/01/03 09:58:15;;;;;;;9.57;8.70;;;;;;;;;;5034002;28;20091;-75
2024/01/03 10:00:41;;;;;;;9.05;8.32;;;;;;;;;;5035708;28;20056;-75
2024/01/03 10:03:07;;;;;;;9.50;8.70;;;;;;;;;;5035335;28;20037;-75
2024/01/03 10:05:33;;;;;;;8.20;7.60;;;;;;;;;;5057343;27;20043;-75
2024/01/03 10:07:59;;;;;;;8.10;7.60;;;;;;;;;;5117222;27;20035;-75
2024/01/03 10:10:32;;;;;;;9.07;8.18;;;;;;;;;;5104471;27;20035;-75
2024/01/03 10:13:24;;;;;;;9.93;9.13;;;;;;;;;;5104846;27;20568;-74
2024/01/03 10:15:50;;;;;;;8.70;8.10;;;;;;;;;;5128230;27;20050;-74
2024/01/03 10:18:17;;;;;;;8.88;8.13;;;;;;;;;;5104427;27;20496;-74
2024/01/03 10:20:43;;;;;;;9.10;8.32;;;;;;;;;;5102652;27;20067;-74
2024/01/03 10:23:11;;;;;;;9.05;8.38;;;;;;;;;;5107439;27;20039;-74
2024/01/03 10:25:38;;;;;;;9.38;8.73;;;;;;;;;;5110205;27;20080;-74
2024/01/03 10:28:05;;;;;;;9.25;7.55;;;;;;;;;;5100301;27;20158;-74
2024/01/03 10:30:31;;;;;;;9.50;8.70;;;;;;;;;;5094501;27;21081;-74
2024/01/03 10:33:08;;;;;;;9.18;8.43;;;;;;;;;;5096378;27;20033;-73
2024/01/03 10:35:41;;;;;;;9.05;8.27;;;;;;;;;;5126355;27;20075;-74
2024/01/03 10:46:47;;;;;;;8.80;8.30;;;;;;;;;;4978934;28;20073;-74
2024/01/03 10:55:22;;;;;;;10.23;9.27;;;;;;;;;;4938961;28;20174;-74
2024/01/03 10:59:39;;;;;;;9.23;8.57;;;;;;;;;;4937779;28;20037;-74
2024/01/03 11:03:05;;;;;;;10.15;9.13;;;;;;;;;;4824497;29;20098;-74
2024/01/03 11:06:06;;;;;;;9.63;8.93;;;;;;;;;;4811493;29;20092;-74
2024/01/03 11:08:52;;;;;;;9.25;8.65;;;;;;;;;;4827388;29;20536;-74
2024/01/03 11:11:35;;;;;;;9.10;8.50;;;;;;;;;;4826309;29;21053;-74
2024/01/03 11:14:24;;;;;;;9.32;8.45;;;;;;;;;;4824619;29;20109;-74
2024/01/03 11:16:52;;;;;;;8.85;8.25;;;;;;;;;;4819421;29;20050;-74
2024/01/03 11:19:41;;;;;;;8.50;8.00;;;;;;;;;;4809695;29;20100;-74
2024/01/03 11:22:21;;;;;;;;;;;;;;;;;;;;;
2024/01/03 11:25:03;;;;;;;9.65;8.93;;;;;;;;;;4792834;29;20177;-75
2024/01/03 11:27:30;;;;;;;9.32;8.65;;;;;;;;;;4843527;29;20572;-74
2024/01/03 11:29:56;;;;;;;9.45;8.85;;;;;;;;;;4870812;29;20519;-74
2024/01/03 11:32:32;;;;;;;9.40;8.85;;;;;;;;;;4879426;29;20064;-74
2024/01/03 11:34:59;;;;;;;9.70;8.93;;;;;;;;;;4877662;29;20518;-74
2024/01/03 11:37:28;;;;;;;10.45;9.80;;;;;;;;;;4878942;29;20834;-75
2024/01/03 11:39:55;;;;;;;9.43;8.77;;;;;;;;;;5012724;28;20083;-74
2024/01/03 11:42:30;;;;;;;10.43;9.73;;;;;;;;;;5014779;28;20060;-74
2024/01/03 11:45:13;;;;;;;9.10;8.60;;;;;;;;;;5017946;28;20056;-74
2024/01/03 11:47:46;;;;;;;9.50;8.90;;;;;;;;;;5014702;28;20048;-74
2024/01/03 11:50:14;;;;;;;9.80;9.18;;;;;;;;;;5012954;28;20124;-74
2024/01/03 11:52:51;;;;;;;9.77;9.18;;;;;;;;;;5011866;28;20038;-75
2024/01/03 11:55:18;;;;;;;10.38;9.68;;;;;;;;;;5013997;28;20033;-75
2024/01/03 11:57:47;;;;;;;10.07;9.52;;;;;;;;;;5016450;28;20119;-75
2024/01/03 12:00:24;;;;;;;;;;;;;;;;;;5016022;28;20049;-75
2024/01/03 12:02:49;;;;;;;10.40;9.80;;;;;;;;;;5014888;28;19917;-75
2024/01/03 12:05:15;;;;;;;9.50;8.90;;;;;;;;;;5013522;28;20038;-75
2024/01/03 12:07:41;;;;;;;10.07;9.27;;;;;;;;;;5015655;28;20120;-74
2024/01/03 12:10:10;;;;;;;10.18;9.50;;;;;;;;;;5017912;28;20030;-74
2024/01/03 12:12:35;;;;;;;9.80;9.20;;;;;;;;;;5027184;28;20049;-75
2024/01/03 12:15:01;;;;;;;10.30;9.70;;;;;;;;;;5014355;28;20038;-74
2024/01/03 12:17:32;;;;;;;11.38;10.27;;;;;;;;;;5018981;28;20040;-73
2024/01/03 12:20:14;;;;;;;10.85;9.95;;;;;;;;;;5014054;28;20091;-75
2024/01/03 12:22:40;;;;;;;10.05;9.43;;;;;;;;;;5013361;28;20522;-76
2024/01/03 12:25:06;;;;;;;9.85;9.25;;;;;;;;;;5013858;28;20041;-76
2024/01/03 12:27:33;;;;;;;9.13;8.52;;;;;;;;;;5019498;28;20116;-75
2024/01/03 12:30:18;;;;;;;9.60;8.90;;;;;;;;;;5013874;28;20041;-75
2024/01/03 12:32:45;;;;;;;9.57;9.07;;;;;;;;;;5015624;28;20068;-74
2024/01/03 12:35:12;;;;;;;10.10;9.45;;;;;;;;;;5014374;28;20049;-73
2024/01/03 12:37:46;;;;;;;9.88;9.18;;;;;;;;;;5014119;28;20033;-76
2024/01/03 12:40:16;;;;;;;9.43;8.93;;;;;;;;;;5013354;28;20042;-75
2024/01/03 12:42:43;;;;;;;9.48;8.57;;;;;;;;;;5011481;28;20033;-73
2024/01/03 12:45:09;;;;;;;8.90;8.40;;;;;;;;;;5013401;28;20388;-74
2024/01/03 12:47:36;;;;;;;10.13;9.25;;;;;;;;;;5009509;28;20069;-76
2024/01/03 12:50:01;;;;;;;9.15;8.50;;;;;;;;;;5016309;28;20041;-76
2024/01/03 12:52:29;;;;;;;10.25;9.52;;;;;;;;;;5014206;28;20098;-73
2024/01/03 12:54:55;;;;;;;9.88;9.27;;;;;;;;;;5009689;28;20037;-73
2024/01/03 12:57:21;;;;;;;9.40;8.80;;;;;;;;;;5013060;28;20499;-73
2024/01/03 12:59:47;;;;;;;9.57;8.98;;;;;;;;;;5014019;28;20036;-73
2024/01/03 13:02:13;;;;;;;9.55;8.90;;;;;;;;;;5013174;28;20049;-75
2024/01/03 13:04:38;;;;;;;8.88;8.38;;;;;;;;;;5013440;28;20045;-76
2024/01/03 13:07:04;;;;;;;10.10;9.40;;;;;;;;;;5016746;28;20033;-75
2024/01/03 13:09:30;;;;;;;10.10;9.25;;;;;;;;;;5013400;28;20042;-75
2024/01/03 13:11:56;;;;;;;9.43;8.90;;;;;;;;;;5011064;28;20044;-76
2024/01/03 13:14:22;;;;;;;9.93;9.25;;;;;;;;;;5012187;28;20038;-76
2024/01/03 13:16:47;;;;;;;10.10;9.30;;;;;;;;;;5017067;28;20061;-76
2024/01/03 13:19:14;;;;;;;9.68;9.07;;;;;;;;;;5013577;28;20091;-75
2024/01/03 13:21:40;;;;;;;9.77;9.23;;;;;;;;;;5010210;28;20092;-76
2024/01/03 13:24:06;;;;;;;10.15;9.30;;;;;;;;;;5015117;28;20658;-75
2024/01/03 13:26:31;;;;;;;9.50;8.80;;;;;;;;;;5016831;28;20087;-75
2024/01/03 13:28:57;;;;;;;9.30;8.70;;;;;;;;;;5012794;28;20033;-76
2024/01/03 13:31:22;;;;;;;8.90;8.20;;;;;;;;;;5012556;28;20535;-75
2024/01/03 13:33:48;;;;;;;11.45;8.75;;;;;;;;;;5013325;28;20057;-73
2024/01/03 13:36:14;;;;;;;9.40;8.73;;;;;;;;;;5013662;28;20041;-75
2024/01/03 13:38:40;;;;;;;9.07;8.35;;;;;;;;;;5013053;28;20038;-76
2024/01/03 13:41:06;;;;;;;9.95;9.20;;;;;;;;;;5021101;28;20026;-76
2024/01/03 13:43:37;;;;;;;10.98;9.77;;;;;;;;;;5039832;28;20067;-76
2024/01/03 13:46:06;;;;;;;9.18;8.20;;;;;;;;;;5041936;28;20037;-75
2024/01/03 13:48:31;;;;;;;9.35;8.55;;;;;;;;;;5047327;28;20037;-75
2024/01/03 13:50:57;;;;;;;9.25;8.68;;;;;;;;;;5020484;28;20036;-75
2024/01/03 13:53:23;;;;;;;9.20;8.50;;;;;;;;;;5020794;28;20442;-75
2024/01/03 13:55:49;;;;;;;9.43;8.57;;;;;;;;;;5020204;28;20029;-76
2024/01/03 13:58:14;;;;;;;10.07;9.38;;;;;;;;;;5024094;28;20124;-76
2024/01/03 14:00:40;;;;;;;9.95;9.35;;;;;;;;;;5024613;28;20411;-76
2024/01/03 14:03:05;;;;;;;17.88;12.57;;;;;;;;;;5023332;28;20126;-75
2024/01/03 14:05:31;;;;;;;9.88;8.90;;;;;;;;;;5018979;28;20096;-75
2024/01/03 14:07:58;;;;;;;10.18;9.30;;;;;;;;;;5020883;28;20617;-75
2024/01/03 14:10:26;;;;;;;9.75;9.07;;;;;;;;;;5021151;28;20132;-75
2024/01/03 14:12:52;;;;;;;11.30;9.90;;;;;;;;;;5017307;28;20051;-75
2024/01/03 14:15:18;;;;;;;10.98;9.30;;;;;;;;;;5021651;28;20124;-75
2024/01/03 14:22:43;;;;;;;;;;;;;;;;;;;;;
2024/01/03 14:26:37;;;;;;;9.43;8.57;;;;;;;;;;4939007;28;20041;-75
2024/01/03 14:30:15;;;;;;;9.48;8.68;;;;;;;;;;4949107;28;20076;-75
2024/01/03 14:34:00;;;;;;;9.57;8.88;;;;;;;;;;4941522;28;20058;-75
2024/01/03 14:40:35;;;;;;;9.43;8.63;;;;;;;;;;4955530;28;21613;-73
2024/01/03 14:43:10;;;;;;;9.57;8.80;;;;;;;;;;4955194;28;20035;-73
2024/01/03 14:45:37;;;;;;;10.68;9.98;;;;;;;;;;4951846;28;20051;-72
2024/01/03 14:48:03;;;;;;;9.35;8.65;;;;;;;;;;4960110;28;20682;-75
2024/01/03 14:50:29;;;;;;;9.30;8.70;;;;;;;;;;4940364;28;20061;-75
2024/01/03 14:52:55;;;;;;;9.20;8.52;;;;;;;;;;4955832;28;20046;-75
2024/01/03 14:55:21;;;;;;;8.50;7.90;;;;;;;;;;4958171;28;20047;-75
2024/01/03 14:57:46;;;;;;;8.65;8.07;;;;;;;;;;4958492;28;20177;-75
2024/01/03 15:00:13;;;;;;;8.55;7.90;;;;;;;;;;4940570;28;20401;-75
2024/01/03 15:02:39;;;;;;;8.85;8.30;;;;;;;;;;4966550;28;20046;-75
2024/01/03 15:05:05;;;;;;;9.40;8.63;;;;;;;;;;4958705;28;20437;-76
2024/01/03 15:07:30;;;;;;;9.25;8.57;;;;;;;;;;4959485;28;20039;-75
2024/01/03 15:09:56;;;;;;;8.80;8.20;;;;;;;;;;4955086;28;20073;-75
2024/01/03 15:12:21;;;;;;;8.90;8.40;;;;;;;;;;4956661;28;20676;-75
2024/01/03 15:14:47;;;;;;;8.48;7.97;;;;;;;;;;4957225;28;20759;-75
2024/01/03 15:17:13;;;;;;;8.65;8.15;;;;;;;;;;4957210;28;20532;-75
2024/01/03 15:19:39;;;;;;;8.88;8.38;;;;;;;;;;4958926;28;20042;-75
2024/01/03 15:22:19;;;;;;;9.38;8.65;;;;;;;;;;4959690;28;20031;-75
2024/01/03 15:24:44;;;;;;;9.15;8.65;;;;;;;;;;4946793;28;20732;-75
2024/01/03 15:27:10;;;;;;;9.23;8.63;;;;;;;;;;4957937;28;20038;-75
2024/01/03 15:29:36;;;;;;;8.70;8.05;;;;;;;;;;4961032;28;20125;-75
2024/01/03 15:32:02;;;;;;;8.15;7.68;;;;;;;;;;4963397;28;20809;-75